Latest Weather Observations for Hogan Island

IDT60801

Issued at 12:21 am EST Friday 23 April 2021 (issued every 10 minutes, with the page automatically refreshed every 10 minutes)

About weather observations | Map of weather stations | Latest weather observations for TAS | Other Formats
Station Details ID: 200838 Name: HOGAN ISLAND Lat: -39.22 Lon: 146.98 Height: 116.0 m
Data from the previous 72 hours. | See also: Recent months at Hogan Island
Date/Time
EST
Temp
°C
App
Temp
°C
Dew
Point
°C
Rel
Hum
%
Delta-T
°C
Wind Press
QNH
hPa
Press
MSL
hPa
Rain since
9am
mm
Dir  Spd
km/h
Gust
km/h
Spd
kts
Gust
kts
23/12:00am 13.6 -0.1 7.6 67 3.0 W 69 78 37 42 1009.9 1009.8 2.8
 
Date/Time
EST
Temp
°C
App
Temp
°C
Dew
Point
°C
Rel
Hum
%
Delta-T
°C
Wind Press
QNH
hPa
Press
MSL
hPa
Rain since
9am
mm
Dir  Spd
km/h
Gust
km/h
Spd
kts
Gust
kts
22/11:30pm 13.5 -0.2 7.3 66 3.0 W 69 82 37 44 1009.7 - 2.8
22/11:09pm 13.5 1.0 9.4 76 2.1 W 65 83 35 45 1009.8 - 2.8
22/11:00pm 13.4 1.1 10.0 80 1.8 W 65 76 35 41 1009.9 - 2.8
22/10:30pm 13.2 1.0 10.2 82 1.6 W 65 76 35 41 1009.9 - 2.8
22/10:00pm 12.4 -0.8 10.3 87 1.1 W 70 91 38 49 1009.8 - 2.8
22/09:49pm 12.8 0.6 10.3 85 1.3 W 65 95 35 51 1009.6 - 2.8
22/09:30pm 12.9 2.3 11.8 93 0.6 W 59 67 32 36 1009.9 - 2.8
22/09:19pm 12.5 1.0 11.6 94 0.5 W 63 82 34 44 1009.8 - 2.8
22/09:00pm 12.8 1.4 11.7 93 0.6 W 63 70 34 38 1009.6 1009.5 2.8
22/08:30pm 12.2 -0.5 11.3 94 0.5 W 69 82 37 44 1009.2 - 2.6
22/08:00pm 12.4 -1.2 11.5 94 0.5 W 74 93 40 50 1009.1 - 2.4
22/07:30pm 12.6 -1.5 11.2 91 0.7 W 76 87 41 47 1008.4 - 2.4
22/07:11pm 11.8 -2.7 10.9 94 0.5 W 78 100 42 54 1008.2 - 2.4
22/07:00pm 11.4 -7.0 10.5 94 0.5 W 98 119 53 64 1007.9 - 2.4
22/06:57pm 12.0 -6.7 10.9 93 0.6 W 100 119 54 64 1007.5 - 2.4
22/06:56pm 12.4 -1.3 11.0 91 0.7 W 74 119 40 64 1007.2 - 2.2
22/06:39pm 13.5 -0.2 11.0 85 1.3 W 74 93 40 50 1008.0 - 2.0
22/06:30pm 13.1 -2.5 10.5 84 1.4 W 83 98 45 53 1007.9 - 2.0
22/06:18pm 13.4 -0.6 11.3 87 1.1 W 76 95 41 51 1007.3 - 1.8
22/06:00pm 14.0 -0.4 10.0 77 2.1 W 76 89 41 48 1007.7 1007.6 1.8
22/05:30pm 13.7 -0.7 9.9 78 2.0 W 76 91 41 49 1007.4 - 1.8
22/05:00pm 13.9 -0.4 10.3 79 1.9 W 76 89 41 48 1007.3 - 1.8
22/04:30pm 13.9 -0.5 10.1 78 2.0 W 76 91 41 49 1007.1 - 1.8
22/04:06pm 14.0 -0.4 10.0 77 2.1 W 76 98 41 53 1006.7 - 1.8
22/04:00pm 13.9 -0.8 10.3 79 1.9 W 78 91 42 49 1007.0 - 1.8
22/03:33pm 13.7 0.1 10.1 79 1.9 WNW 72 91 39 49 1007.0 - 1.8
22/03:30pm 13.6 -0.8 10.0 79 1.9 W 76 93 41 50 1006.8 - 1.8
22/03:00pm 13.8 0.0 9.3 74 2.3 W 72 87 39 47 1006.8 1006.7 1.8
22/02:30pm 13.6 -1.1 10.2 80 1.8 W 78 91 42 49 1006.4 - 1.8
22/02:14pm 13.5 1.9 11.0 85 1.3 W 63 83 34 45 1006.4 - 1.8
22/02:00pm 12.5 0.0 10.6 88 1.0 WNW 67 80 36 43 1006.3 - 1.8
22/01:30pm 12.3 0.0 11.2 93 0.6 W 67 87 36 47 1006.9 - 1.6
22/01:23pm 12.2 -2.2 11.3 94 0.5 W 78 96 42 52 1006.9 - 1.6
22/01:20pm 11.8 -3.7 10.7 93 0.6 WNW 83 96 45 52 1006.2 - 1.6
22/01:17pm 12.4 0.3 10.6 89 0.9 WNW 65 96 35 52 1006.2 - 1.6
22/01:00pm 12.7 1.9 11.4 92 0.7 WNW 59 70 32 38 1007.0 - 1.6
22/12:30pm 13.6 3.1 11.1 85 1.3 W 57 67 31 36 1007.3 - 1.4
22/12:00pm 12.6 1.1 10.0 84 1.3 W 61 78 33 42 1007.7 1007.6 1.4
22/11:30am 13.1 2.7 10.8 86 1.2 W 56 65 30 35 1007.8 - 1.4
22/11:00am 13.0 1.9 11.6 91 0.7 W 61 76 33 41 1007.6 - 1.4
22/10:30am 12.6 2.2 11.3 92 0.7 W 57 69 31 37 1008.1 - 1.4
22/10:09am 11.4 0.8 10.8 96 0.3 W 57 82 31 44 1008.5 - 1.0
22/10:07am 11.6 1.1 11.0 96 0.3 WNW 57 82 31 44 1008.0 - 1.0
22/10:00am 11.7 0.3 10.6 93 0.6 WNW 61 69 33 37 1008.0 - 0.4
22/09:30am 12.7 0.8 10.1 84 1.3 NW 63 72 34 39 1007.8 - 0.0
22/09:00am 13.1 1.8 9.5 79 1.8 WNW 59 67 32 36 1008.3 1008.2 0.0
22/08:30am 13.1 1.8 9.4 78 1.9 WNW 59 74 32 40 1008.2 - 0.0
22/08:00am 12.9 1.2 9.2 78 1.9 WNW 61 74 33 40 1008.2 - 0.0
22/07:30am 12.4 1.2 8.5 77 1.9 WNW 57 67 31 36 1008.1 - 0.0
22/07:00am 12.2 0.2 8.3 77 1.9 WNW 61 70 33 38 1007.9 - 0.0
22/06:30am 12.2 0.5 7.9 75 2.1 WNW 59 69 32 37 1007.8 - 0.0
22/06:00am 12.2 0.9 7.9 75 2.1 WNW 57 69 31 37 1008.2 1008.1 0.0
22/05:30am 12.2 0.5 7.7 74 2.2 WNW 59 69 32 37 1008.2 - 0.0
22/05:00am 12.2 0.9 7.9 75 2.1 WNW 57 69 31 37 1008.2 - 0.0
22/04:30am 11.9 -0.3 7.2 73 2.3 NW 61 70 33 38 1008.4 - 0.0
22/04:00am 11.8 -1.0 6.5 70 2.5 NW 63 70 34 38 1008.6 - 0.0
22/03:30am 11.8 -1.4 6.5 70 2.5 NW 65 76 35 41 1008.8 - 0.0
22/03:00am 12.0 -1.1 6.7 70 2.5 WNW 65 76 35 41 1009.1 1009.0 0.0
22/02:30am 12.2 -0.6 6.5 68 2.7 NW 63 76 34 41 1009.4 - 0.0
22/02:00am 12.0 -0.8 6.3 68 2.7 NW 63 74 34 40 1010.0 - 0.0
22/01:30am 12.1 -1.1 6.4 68 2.7 NW 65 72 35 39 1010.1 - 0.0
22/01:00am 12.1 -0.7 6.2 67 2.8 WNW 63 72 34 39 1010.5 - 0.0
22/12:30am 12.2 -0.4 7.3 72 2.4 WNW 63 72 34 39 1010.5 - 0.0
22/12:00am 12.2 0.2 6.7 69 2.6 WNW 59 67 32 36 1011.0 1010.9 0.0
 
Date/Time
EST
Temp
°C
App
Temp
°C
Dew
Point
°C
Rel
Hum
%
Delta-T
°C
Wind Press
QNH
hPa
Press
MSL
hPa
Rain since
9am
mm
Dir  Spd
km/h
Gust
km/h
Spd
kts
Gust
kts
21/11:30pm 12.1 1.1 6.8 70 2.5 NW 54 65 29 35 1011.5 - 0.0
21/11:00pm 12.0 1.4 6.7 70 2.5 NW 52 61 28 33 1012.1 - 0.0
21/10:30pm 12.0 1.8 7.1 72 2.4 NW 50 59 27 32 1012.4 - 0.0
21/10:00pm 12.0 2.1 6.7 70 2.5 NW 48 56 26 30 1012.7 - 0.0
21/09:30pm 11.9 2.7 6.4 69 2.6 WNW 44 52 24 28 1012.9 - 0.0
21/09:00pm 11.8 1.9 6.5 70 2.5 NW 48 59 26 32 1013.1 1013.0 0.0
21/08:30pm 11.9 2.8 5.8 66 2.9 WNW 43 54 23 29 1013.2 - 0.0
21/08:00pm 11.9 1.3 4.9 62 3.2 NW 50 57 27 31 1013.4 - 0.0
21/07:30pm 12.2 2.3 4.7 60 3.4 WNW 46 57 25 31 1013.6 - 0.0
21/07:00pm 12.2 2.8 5.4 63 3.2 WNW 44 54 24 29 1013.6 - 0.0
21/06:30pm 11.9 3.5 5.8 66 2.9 WNW 39 50 21 27 1013.3 - 0.0
21/06:16pm 12.0 3.8 6.7 70 2.5 WNW 39 48 21 26 1013.5 - 0.0
21/06:00pm 11.5 3.8 7.0 74 2.2 W 37 46 20 25 1013.6 1013.5 0.0
21/05:30pm 12.1 4.0 6.8 70 2.5 WNW 39 44 21 24 1013.3 - 0.0
21/05:00pm 12.0 3.4 6.3 68 2.7 W 41 48 22 26 1013.5 - 0.0
21/04:30pm 12.0 3.5 5.2 63 3.2 W 39 50 21 27 1013.5 - 0.0
21/04:00pm 12.1 3.1 4.6 60 3.4 W 41 50 22 27 1013.7 - 0.0
21/03:30pm 12.1 2.5 4.6 60 3.4 W 44 52 24 28 1013.7 - 0.0
21/03:00pm 12.3 2.9 5.5 63 3.2 WNW 44 50 24 27 1013.9 1013.8 0.0
21/02:30pm 11.8 3.1 5.9 67 2.8 W 41 50 22 27 1014.0 - 0.0
21/02:00pm 12.0 6.1 5.6 65 3.0 WNW 26 33 14 18 1014.2 - 0.0
21/01:30pm 14.3 7.9 5.4 55 4.2 WNW 28 35 15 19 1014.4 - 0.0
21/01:00pm 13.5 7.5 5.4 58 3.8 WNW 26 41 14 22 1014.8 - 0.0
21/12:30pm 13.0 7.6 4.4 56 4.0 W 22 32 12 17 1015.3 - 0.0
21/12:00pm 12.7 6.4 3.9 55 4.0 W 26 35 14 19 1015.8 1015.7 0.0
21/11:30am 13.7 8.0 5.1 56 4.0 W 24 32 13 17 1016.2 - 0.0
21/11:00am 12.9 5.1 3.0 51 4.4 W 33 39 18 21 1016.4 - 0.0
21/10:30am 12.9 6.1 5.1 59 3.6 W 30 37 16 20 1016.6 - 0.0
21/10:00am 11.9 4.8 3.7 57 3.7 WSW 30 39 16 21 1016.6 - 0.0
21/09:30am 11.8 4.8 4.1 59 3.5 WSW 30 35 16 19 1016.6 - 0.0
21/09:00am 10.7 4.4 3.5 61 3.2 WSW 26 32 14 17 1016.6 1016.5 10.6
21/08:30am 10.8 5.0 4.5 65 2.8 WSW 24 33 13 18 1016.4 - 10.6
21/08:00am 11.2 7.5 6.3 72 2.3 SW 15 20 8 11 1016.0 - 10.6
21/07:30am 9.9 5.1 5.5 74 2.0 SW 20 28 11 15 1015.6 - 10.6
21/07:00am 9.4 5.2 5.6 77 1.7 SW 17 22 9 12 1015.3 - 10.6
21/06:30am 9.6 5.1 6.0 78 1.7 SW 19 26 10 14 1015.3 - 10.6
21/06:00am 9.9 4.4 6.1 77 1.8 SW 24 33 13 18 1015.2 1015.1 10.6
21/05:30am 10.0 4.9 5.8 75 1.9 SSW 22 32 12 17 1015.0 - 10.6
21/05:00am 10.1 4.6 5.7 74 2.0 SSW 24 35 13 19 1014.7 - 10.6
21/04:30am 9.6 3.8 4.6 71 2.2 SSW 24 33 13 18 1014.5 - 10.6
21/04:00am 9.7 3.6 4.7 71 2.2 SSW 26 37 14 20 1014.2 - 10.6
21/03:30am 9.2 3.1 4.6 73 2.1 S 26 32 14 17 1014.0 - 10.6
21/03:00am 9.4 2.6 5.2 75 1.9 SSW 30 37 16 20 1013.8 1013.7 10.6
21/02:30am 9.5 3.9 7.1 85 1.1 S 26 41 14 22 1014.0 - 10.6
21/02:00am 8.3 3.6 5.9 85 1.1 S 20 32 11 17 1013.9 - 10.6
21/01:30am 8.6 3.0 7.2 91 0.7 S 26 35 14 19 1013.7 - 10.6
21/01:12am 9.2 1.4 8.1 93 0.5 S 39 48 21 26 1013.3 - 10.6
21/01:00am 8.4 4.9 7.3 93 0.5 S 15 20 8 11 1013.4 - 10.6
21/12:30am 8.7 2.0 7.5 92 0.6 SW 32 54 17 29 1013.3 - 7.0
21/12:27am 8.5 2.6 7.4 93 0.5 SW 28 46 15 25 1013.3 - 6.8
21/12:14am 8.0 -0.2 6.5 90 0.7 SSW 39 50 21 27 1013.3 - 5.0
21/12:07am 8.8 1.1 6.9 88 0.9 WSW 37 52 20 28 1013.1 - 2.8
21/12:03am 9.3 2.6 7.3 87 1.0 SSW 32 52 17 28 1012.9 - 2.4
21/12:00am 9.5 3.8 6.8 83 1.3 SSW 26 41 14 22 1013.1 1013.0 2.4
 
Date/Time
EST
Temp
°C
App
Temp
°C
Dew
Point
°C
Rel
Hum
%
Delta-T
°C
Wind Press
QNH
hPa
Press
MSL
hPa
Rain since
9am
mm
Dir  Spd
km/h
Gust
km/h
Spd
kts
Gust
kts
20/11:30pm 10.2 2.9 7.3 82 1.4 SSE 35 43 19 23 1012.6 - 2.4
20/11:00pm 11.0 3.4 7.5 79 1.7 S 37 44 20 24 1012.5 - 2.4
20/10:30pm 11.1 3.0 7.0 76 2.0 S 39 48 21 26 1012.5 - 2.4
20/10:27pm 11.1 3.0 6.8 75 2.1 S 39 50 21 27 1012.5 - 2.4
20/10:00pm 11.2 3.2 5.7 69 2.6 SSW 37 48 20 26 1012.3 - 2.4
20/09:31pm 11.0 3.0 5.7 70 2.5 SSW 37 61 20 33 1011.6 - 2.4
20/09:30pm 10.9 3.0 6.1 72 2.3 SSW 37 54 20 29 1011.6 - 2.4
20/09:00pm 10.6 1.5 6.6 76 1.9 SSW 44 65 24 35 1011.3 1011.2 2.4
20/08:40pm 10.7 0.5 7.0 78 1.8 SW 50 69 27 37 1011.1 - 2.4
20/08:30pm 11.4 1.5 6.7 73 2.2 SW 48 63 26 34 1011.0 - 2.4
20/08:14pm 11.7 2.0 7.4 75 2.1 SW 48 67 26 36 1011.1 - 2.4
20/08:00pm 11.7 0.3 6.6 71 2.4 WSW 56 65 30 35 1010.7 - 2.4
20/07:30pm 11.6 0.2 6.9 73 2.3 SW 56 70 30 38 1010.3 - 2.4
20/07:00pm 11.7 -1.1 6.6 71 2.4 WSW 63 74 34 40 1009.9 - 2.4
20/06:30pm 11.8 -1.6 7.1 73 2.3 SW 67 76 36 41 1009.1 - 2.4
20/06:00pm 11.7 0.3 7.4 75 2.1 SW 57 69 31 37 1008.6 1008.5 2.4
20/05:30pm 11.8 1.5 8.3 79 1.7 WSW 52 67 28 36 1008.2 - 2.4
20/05:00pm 11.7 0.5 7.6 76 2.0 WSW 56 65 30 35 1007.9 - 2.4
20/04:30pm 11.7 1.1 8.4 80 1.6 WSW 54 63 29 34 1007.7 - 2.4
20/04:00pm 11.8 1.5 8.3 79 1.7 WSW 52 63 28 34 1007.2 - 2.4
20/03:30pm 12.0 3.2 9.7 86 1.2 WSW 46 59 25 32 1007.1 - 2.4
20/03:00pm 11.8 0.7 10.2 90 0.8 W 59 69 32 37 1006.7 1006.6 2.4
20/02:30pm 11.8 2.4 10.2 90 0.8 W 50 59 27 32 1006.9 - 2.4
20/02:00pm 12.1 1.2 9.7 85 1.2 W 57 69 31 37 1007.0 - 2.4
20/01:43pm 12.0 1.1 9.4 84 1.3 W 57 63 31 34 1007.0 - 2.4
20/01:30pm 12.5 5.3 10.6 88 1.0 W 39 46 21 25 1007.2 - 2.4
20/01:06pm 11.6 3.9 10.0 90 0.8 W 41 59 22 32 1007.6 - 2.4
20/01:00pm 11.3 2.5 9.6 89 0.9 W 46 59 25 32 1007.6 - 2.4
20/12:30pm 11.7 4.8 10.3 91 0.7 W 37 46 20 25 1007.9 - 1.8
20/12:00pm 11.6 3.9 10.3 92 0.7 W 41 48 22 26 1008.1 1008.0 1.8
20/11:30am 11.0 1.2 10.1 94 0.5 WSW 52 61 28 33 1008.0 - 1.4
20/11:11am 11.8 -0.1 9.9 88 1.0 WSW 63 76 34 41 1007.3 - 0.2
20/11:10am 12.1 4.4 10.2 88 1.0 SW 41 76 22 41 1007.4 - 0.0
20/11:00am 13.7 8.2 11.7 88 1.1 WSW 32 37 17 20 1007.6 - 0.0
20/10:30am 13.4 5.1 11.3 87 1.1 WSW 46 63 25 34 1007.8 - 0.0
20/10:17am 14.1 3.6 10.3 78 2.0 W 56 74 30 40 1007.5 - 0.0
20/10:00am 16.3 5.1 9.9 66 3.4 NW 59 69 32 37 1006.9 - 0.0
20/09:30am 15.9 4.3 9.6 66 3.3 NW 61 72 33 39 1007.0 - 0.0
20/09:00am 16.1 3.7 9.8 66 3.3 NW 65 80 35 43 1007.2 1007.1 0.0
20/08:30am 16.0 3.6 9.7 66 3.3 NW 65 78 35 42 1007.2 - 0.0
20/08:00am 15.7 3.2 9.4 66 3.3 NW 65 76 35 41 1007.3 - 0.0
20/07:30am 15.7 4.6 10.2 70 2.9 NW 59 69 32 37 1007.4 - 0.0
20/07:00am 15.6 4.7 9.5 67 3.2 NW 57 70 31 38 1007.3 - 0.0
20/06:30am 15.6 4.9 9.5 67 3.2 NW 56 67 30 36 1007.5 - 0.0
20/06:00am 15.6 4.9 9.5 67 3.2 NW 56 65 30 35 1007.6 1007.5 0.0
20/05:30am 15.6 5.3 9.5 67 3.2 NW 54 63 29 34 1007.8 - 0.0
20/05:00am 15.6 6.0 9.5 67 3.2 NW 50 59 27 32 1008.0 - 0.0
20/04:30am 15.8 5.9 9.9 68 3.1 NW 52 59 28 32 1008.3 - 0.0
20/04:00am 15.8 6.8 10.3 70 2.9 NW 48 59 26 32 1008.5 - 0.0
20/03:30am 15.6 8.4 10.6 72 2.7 NW 39 50 21 27 1008.6 - 0.0
20/03:00am 15.6 7.5 10.2 70 2.9 NW 43 54 23 29 1008.7 1008.6 0.0
20/02:30am 15.5 8.4 10.9 74 2.5 NNW 39 46 21 25 1009.3 - 0.0
20/02:00am 15.4 8.9 10.4 72 2.6 NNW 35 48 19 26 1009.6 - 0.0
20/01:30am 15.3 8.9 10.7 74 2.4 NW 35 43 19 23 1010.2 - 0.0
20/01:00am 15.4 8.9 10.4 72 2.6 NW 35 48 19 26 1010.4 - 0.0
20/12:30am 15.4 8.3 10.8 74 2.5 NW 39 46 21 25 1010.7 - 0.0

Other formats

Comma delimited format used in spreadsheet applications
http://www.bom.gov.au/fwo/IDT60801/IDT60801.94949.axf

JavaScript Object Notation format (JSON) in row-major order
http://www.bom.gov.au/fwo/IDT60801/IDT60801.94949.json

Data quality

Most of these data are generated automatically and are frequently updated. Quality checks on data are not normally performed. It is possible for incorrect values to appear. Refer to information at About Latest Weather Observations and please check the disclaimer before using these data.